createdAt,value
2019-03-06T00:00:27.510Z,47.88
2019-03-06T00:03:57.610Z,47.97
2019-03-06T00:07:27.740Z,48.09
2019-03-06T00:10:57.980Z,48.19
2019-03-06T00:14:28.060Z,48.34
2019-03-06T00:17:58.360Z,48.48
2019-03-06T00:21:28.437Z,48.68
2019-03-06T00:24:58.509Z,48.86
2019-03-06T00:28:28.610Z,49.05
2019-03-06T00:31:58.650Z,49.26
2019-03-06T00:35:32.550Z,49.47
2019-03-06T00:39:05.843Z,49.68
2019-03-06T00:42:41.039Z,49.91
2019-03-06T00:46:11.320Z,50.17
2019-03-06T00:49:41.320Z,50.4
2019-03-06T00:53:11.409Z,50.62
2019-03-06T00:56:41.489Z,50.82
2019-03-06T01:00:12.570Z,51.06
2019-03-06T01:03:42.663Z,51.32
2019-03-06T01:07:12.749Z,51.54
2019-03-06T01:10:42.830Z,51.82
2019-03-06T01:14:13.055Z,52.04
2019-03-06T01:17:43.399Z,52.28
2019-03-06T01:21:13.449Z,52.55
2019-03-06T01:24:43.519Z,52.81
2019-03-06T01:28:13.609Z,53.07
2019-03-06T01:31:43.589Z,53.33
2019-03-06T01:35:24.679Z,53.58
2019-03-06T01:40:22.079Z,53.97
2019-03-06T01:43:57.799Z,54.26
2019-03-06T01:47:27.909Z,54.55
2019-03-06T01:50:58.080Z,54.84
2019-03-06T01:54:28.059Z,55.14
2019-03-06T01:57:58.139Z,55.43
2019-03-06T02:00:17.479Z,55.62
2019-03-06T02:03:47.489Z,55.91
2019-03-06T02:07:17.900Z,56.23
2019-03-06T02:10:48.121Z,56.55
2019-03-06T02:14:18.230Z,56.85
2019-03-06T02:17:48.332Z,57.16
2019-03-06T02:21:18.449Z,57.45
2019-03-06T02:24:48.481Z,57.72
2019-03-06T02:28:18.506Z,58.03
2019-03-06T02:31:48.709Z,58.33
2019-03-06T02:35:18.843Z,58.61
2019-03-06T02:38:48.952Z,58.9
2019-03-06T02:42:19.291Z,59.18
2019-03-06T02:45:49.451Z,59.44
2019-03-06T02:49:19.440Z,59.71
2019-03-06T02:52:49.590Z,59.97
2019-03-06T02:56:19.751Z,60.21
2019-03-06T02:59:55.909Z,60.41
2019-03-06T03:03:35.067Z,60.67
2019-03-06T03:07:08.281Z,60.92
2019-03-06T03:10:38.482Z,61.17
2019-03-06T03:14:08.541Z,61.36
2019-03-06T03:17:38.519Z,61.61
2019-03-06T03:21:08.781Z,61.83
2019-03-06T03:24:38.870Z,62.05
2019-03-06T03:28:08.950Z,62.3
2019-03-06T03:31:39.011Z,62.53
2019-03-06T03:35:09.643Z,62.76
2019-03-06T03:38:39.730Z,62.99
2019-03-06T03:42:09.883Z,63.19
2019-03-06T03:45:39.923Z,63.44
2019-03-06T03:49:10.243Z,63.65
2019-03-06T03:52:40.280Z,63.87
2019-03-06T03:56:10.391Z,64.07
2019-03-06T03:59:40.502Z,64.28
2019-03-06T04:00:17.067Z,64.31
2019-03-06T04:03:48.241Z,64.52
2019-03-06T04:07:18.752Z,64.69
2019-03-06T04:10:48.792Z,64.87
2019-03-06T04:14:18.990Z,65.05
2019-03-06T04:17:49.061Z,65.22
2019-03-06T04:21:19.101Z,65.38
2019-03-06T04:24:49.091Z,65.56
2019-03-06T04:28:19.200Z,65.73
2019-03-06T04:31:49.281Z,65.88
2019-03-06T04:35:19.372Z,66.04
2019-03-06T04:38:49.431Z,66.21
2019-03-06T04:42:19.420Z,66.36
2019-03-06T04:45:49.776Z,66.54
2019-03-06T04:49:19.820Z,66.71
2019-03-06T04:52:49.830Z,66.87
2019-03-06T04:56:19.930Z,67.02
2019-03-06T04:59:49.980Z,67.2
2019-03-06T05:03:19.991Z,67.36
2019-03-06T05:06:51.241Z,67.53
2019-03-06T05:10:21.250Z,67.72
2019-03-06T05:13:51.330Z,67.88
2019-03-06T05:17:36.361Z,68.05
2019-03-06T05:21:06.431Z,68.25
2019-03-06T05:24:36.421Z,68.4
2019-03-06T05:28:06.510Z,68.56
2019-03-06T05:31:36.482Z,68.73
2019-03-06T05:35:13.871Z,68.91
2019-03-06T05:38:48.301Z,69.05
2019-03-06T05:42:18.520Z,69.2
2019-03-06T05:45:48.661Z,69.36
2019-03-06T05:49:18.731Z,69.53
2019-03-06T05:52:48.801Z,69.67
2019-03-06T05:56:18.961Z,69.83
2019-03-06T05:59:48.981Z,70
2019-03-06T06:00:17.731Z,70
2019-03-06T06:03:47.781Z,70.17
2019-03-06T06:07:18.781Z,70.3
2019-03-06T06:10:48.954Z,70.45
2019-03-06T06:14:19.171Z,70.6
2019-03-06T06:17:49.271Z,70.75
2019-03-06T06:22:40.346Z,70.95
2019-03-06T06:26:10.458Z,71.1
2019-03-06T06:29:40.682Z,71.21
2019-03-06T06:33:10.652Z,71.35
2019-03-06T06:36:40.763Z,71.48
2019-03-06T06:40:11.178Z,71.58
2019-03-06T06:43:41.173Z,71.68
2019-03-06T06:47:11.142Z,71.78
2019-03-06T06:50:45.949Z,71.89
2019-03-06T06:54:25.364Z,72.01
2019-03-06T06:58:12.512Z,72.14
2019-03-06T07:02:16.282Z,72.22
2019-03-06T07:05:53.993Z,72.36
2019-03-06T07:11:51.033Z,72.57
2019-03-06T07:17:49.243Z,72.75
2019-03-06T07:21:33.724Z,72.88
2019-03-06T07:25:42.583Z,73
2019-03-06T07:29:22.005Z,73.1
2019-03-06T07:32:59.895Z,73.19
2019-03-06T07:36:49.053Z,73.27
2019-03-06T07:40:25.293Z,73.38
2019-03-06T07:44:37.893Z,73.48
2019-03-06T07:48:17.493Z,73.54
2019-03-06T07:52:01.114Z,73.61
2019-03-06T07:55:39.184Z,73.68
2019-03-06T07:59:09.274Z,73.75
2019-03-06T08:00:18.331Z,73.77
2019-03-06T08:03:59.934Z,73.83
2019-03-06T08:07:30.184Z,73.9
2019-03-06T08:11:00.818Z,73.94
2019-03-06T08:17:00.615Z,74.02
2019-03-06T08:23:11.439Z,74.04
2019-03-06T08:26:41.475Z,74.08
2019-03-06T08:30:12.024Z,74.08
2019-03-06T08:33:42.045Z,74.12
2019-03-06T08:37:12.078Z,74.14
2019-03-06T08:40:42.155Z,74.17
2019-03-06T08:44:12.205Z,74.23
2019-03-06T08:47:51.729Z,74.26
2019-03-06T08:51:32.765Z,74.32
2019-03-06T08:55:16.308Z,74.36
2019-03-06T08:58:54.296Z,74.41
2019-03-06T09:02:34.337Z,74.49
2019-03-06T09:06:26.066Z,74.54
2019-03-06T09:10:38.456Z,74.62
2019-03-06T09:14:18.337Z,74.67
2019-03-06T09:18:27.757Z,74.71
2019-03-06T09:22:19.457Z,74.76
2019-03-06T09:25:57.960Z,74.82
2019-03-06T09:29:37.598Z,74.86
2019-03-06T09:33:16.016Z,74.87
2019-03-06T09:38:46.069Z,74.91
2019-03-06T09:43:27.629Z,74.91
2019-03-06T09:48:38.449Z,74.94
2019-03-06T09:54:48.249Z,74.92
2019-03-06T10:00:32.746Z,74.94
2019-03-06T10:05:43.209Z,74.96
2019-03-06T10:09:21.130Z,74.94
2019-03-06T10:12:58.831Z,74.94
2019-03-06T10:16:38.651Z,74.94
2019-03-06T10:20:14.661Z,74.91
2019-03-06T10:23:52.171Z,74.88
2019-03-06T10:27:22.562Z,74.83
2019-03-06T10:31:01.683Z,74.78
2019-03-06T10:34:32.342Z,74.7
2019-03-06T10:38:02.763Z,74.63
2019-03-06T10:41:32.983Z,74.5
2019-03-06T10:45:04.055Z,74.41
2019-03-06T10:48:34.144Z,74.3
2019-03-06T10:52:04.384Z,74.2
2019-03-06T10:55:34.875Z,74.07
2019-03-06T10:59:05.265Z,73.92
2019-03-06T11:02:35.481Z,73.78
2019-03-06T11:06:05.877Z,73.59
2019-03-06T11:09:36.117Z,73.43
2019-03-06T11:13:09.534Z,73.2
2019-03-06T11:16:39.778Z,72.94
2019-03-06T11:20:12.282Z,72.66
2019-03-06T11:23:43.418Z,72.42
2019-03-06T11:27:13.559Z,72.13
2019-03-06T11:30:48.329Z,71.81
2019-03-06T11:34:18.570Z,71.49
2019-03-06T11:37:49.250Z,71.13
2019-03-06T11:41:19.430Z,70.77
2019-03-06T11:44:49.521Z,70.4
2019-03-06T11:48:20.101Z,69.96
2019-03-06T11:51:50.382Z,69.53
2019-03-06T11:55:20.523Z,69.19
2019-03-06T11:58:50.733Z,68.84
2019-03-06T12:00:29.497Z,68.65
2019-03-06T12:03:59.614Z,68.27
2019-03-06T12:07:29.794Z,67.97
2019-03-06T12:10:59.885Z,67.67
2019-03-06T12:14:30.056Z,67.39
2019-03-06T12:18:00.286Z,67.14
2019-03-06T12:21:30.425Z,66.92
2019-03-06T12:25:01.688Z,66.75
2019-03-06T12:28:31.777Z,66.61
2019-03-06T12:32:03.351Z,66.5
2019-03-06T12:35:33.486Z,66.41
2019-03-06T12:39:04.548Z,66.41
2019-03-06T12:42:34.907Z,66.38
2019-03-06T12:46:22.152Z,66.39
2019-03-06T12:49:53.252Z,66.39
2019-03-06T12:53:23.487Z,66.33
2019-03-06T12:56:53.593Z,66.26
2019-03-06T13:00:23.987Z,66.16
2019-03-06T13:03:54.348Z,66.01
2019-03-06T13:07:24.608Z,65.8
2019-03-06T13:10:54.631Z,65.64
2019-03-06T13:14:24.711Z,65.43
2019-03-06T13:17:54.910Z,65.29
2019-03-06T13:21:25.096Z,65.16
2019-03-06T13:24:55.243Z,65.03
2019-03-06T13:28:25.519Z,64.92
2019-03-06T13:31:55.566Z,64.81
2019-03-06T13:35:26.591Z,64.69
2019-03-06T13:39:05.806Z,64.6
2019-03-06T13:42:36.553Z,64.49
2019-03-06T13:46:06.650Z,64.41
2019-03-06T13:49:36.806Z,64.32
2019-03-06T13:53:06.971Z,64.25
2019-03-06T13:56:38.517Z,64.15
2019-03-06T14:00:14.393Z,64.06
2019-03-06T14:03:44.449Z,64.01
2019-03-06T14:07:14.496Z,63.92
2019-03-06T14:10:44.590Z,63.85
2019-03-06T14:14:14.656Z,63.8
2019-03-06T14:17:44.924Z,63.76
2019-03-06T14:21:15.160Z,63.74
2019-03-06T14:24:45.403Z,63.71
2019-03-06T14:28:15.894Z,63.69
2019-03-06T14:31:47.045Z,63.58
2019-03-06T14:35:17.864Z,63.53
2019-03-06T14:38:48.116Z,63.39
2019-03-06T14:42:18.192Z,63.28
2019-03-06T14:45:48.399Z,63.16
2019-03-06T14:49:18.504Z,63.01
2019-03-06T14:52:48.789Z,62.85
2019-03-06T14:56:19.175Z,62.71
2019-03-06T14:59:49.241Z,62.59
2019-03-06T15:03:19.318Z,62.44
2019-03-06T15:06:49.423Z,62.31
2019-03-06T15:10:19.759Z,62.19
2019-03-06T15:13:49.944Z,62.05
2019-03-06T15:17:19.990Z,61.95
2019-03-06T15:20:50.165Z,61.82
2019-03-06T15:24:20.341Z,61.65
2019-03-06T15:27:50.337Z,61.52
2019-03-06T15:31:20.413Z,61.36
2019-03-06T15:34:51.751Z,61.18
2019-03-06T15:38:22.014Z,60.99
2019-03-06T15:42:00.092Z,60.83
2019-03-06T15:45:33.846Z,60.65
2019-03-06T15:49:03.981Z,60.52
2019-03-06T15:52:34.027Z,60.38
2019-03-06T15:56:04.113Z,60.27
2019-03-06T15:59:34.139Z,60.13
2019-03-06T16:00:23.420Z,60.11
2019-03-06T16:03:53.483Z,59.99
2019-03-06T16:07:23.599Z,59.87
2019-03-06T16:10:53.664Z,59.74
2019-03-06T16:14:23.850Z,59.62
2019-03-06T16:17:55.642Z,59.51
2019-03-06T16:21:25.812Z,59.37
2019-03-06T16:24:55.897Z,59.27
2019-03-06T16:28:25.943Z,59.16
2019-03-06T16:31:56.018Z,59.06
2019-03-06T16:35:27.153Z,58.95
2019-03-06T16:38:57.320Z,58.83
2019-03-06T16:42:27.376Z,58.72
2019-03-06T16:45:57.491Z,58.62
2019-03-06T16:49:27.557Z,58.49
2019-03-06T16:52:58.073Z,58.4
2019-03-06T16:56:28.218Z,58.29
2019-03-06T16:59:58.435Z,58.2
2019-03-06T17:03:28.467Z,58.09
2019-03-06T17:06:58.766Z,58
2019-03-06T17:10:29.352Z,57.9
2019-03-06T17:13:59.437Z,57.8
2019-03-06T17:17:29.503Z,57.7
2019-03-06T17:20:59.618Z,57.61
2019-03-06T17:24:29.794Z,57.5
2019-03-06T17:27:59.969Z,57.4
2019-03-06T17:31:29.969Z,57.3
2019-03-06T17:35:00.185Z,57.16
2019-03-06T17:38:31.386Z,57.07
2019-03-06T17:42:01.673Z,56.97
2019-03-06T17:45:32.138Z,56.84
2019-03-06T17:49:02.544Z,56.72
2019-03-06T17:52:32.639Z,56.57
2019-03-06T17:56:02.729Z,56.47
2019-03-06T17:59:32.770Z,56.33
2019-03-06T18:00:17.247Z,56.32
2019-03-06T18:03:54.495Z,56.19
2019-03-06T18:07:24.531Z,56.06
2019-03-06T18:10:54.636Z,55.94
2019-03-06T18:14:24.854Z,55.84
2019-03-06T18:17:54.980Z,55.74
2019-03-06T18:21:25.501Z,55.63
2019-03-06T18:24:55.589Z,55.52
2019-03-06T18:28:25.675Z,55.44
2019-03-06T18:31:55.842Z,55.34
2019-03-06T18:35:26.055Z,55.27
2019-03-06T18:38:57.263Z,55.16
2019-03-06T18:42:27.438Z,55.09
2019-03-06T18:45:57.513Z,55.03
2019-03-06T18:49:27.670Z,54.94
2019-03-06T18:52:59.132Z,54.86
2019-03-06T18:56:29.430Z,54.77
2019-03-06T18:59:59.495Z,54.7
2019-03-06T19:03:29.601Z,54.62
2019-03-06T19:06:59.931Z,54.54
2019-03-06T19:10:30.112Z,54.47
2019-03-06T19:14:00.128Z,54.42
2019-03-06T19:17:30.223Z,54.32
2019-03-06T19:21:00.339Z,54.25
2019-03-06T19:24:30.529Z,54.21
2019-03-06T19:28:00.700Z,54.12
2019-03-06T19:31:30.836Z,54.06
2019-03-06T19:35:01.024Z,54.04
2019-03-06T19:38:31.097Z,53.97
2019-03-06T19:42:01.166Z,53.92
2019-03-06T19:45:31.368Z,53.88
2019-03-06T19:49:01.494Z,53.86
2019-03-06T19:52:31.519Z,53.82
2019-03-06T19:56:01.655Z,53.77
2019-03-06T19:59:31.781Z,53.76
2019-03-06T20:00:16.220Z,53.75
2019-03-06T20:03:46.347Z,53.73
2019-03-06T20:07:16.461Z,53.69
2019-03-06T20:10:46.608Z,53.66
2019-03-06T20:14:16.742Z,53.67
2019-03-06T20:17:47.038Z,53.66
2019-03-06T20:21:17.113Z,53.63
2019-03-06T20:24:47.322Z,53.62
2019-03-06T20:28:17.346Z,53.62
2019-03-06T20:31:47.580Z,53.61
2019-03-06T20:35:19.116Z,53.6
2019-03-06T20:38:49.191Z,53.6
2019-03-06T20:42:19.214Z,53.61
2019-03-06T20:45:49.427Z,53.6
2019-03-06T20:49:19.841Z,53.62
2019-03-06T20:52:50.534Z,53.59
2019-03-06T20:56:20.809Z,53.59
2019-03-06T20:59:50.918Z,53.59
2019-03-06T21:03:20.955Z,53.56
2019-03-06T21:06:51.036Z,53.58
2019-03-06T21:10:21.110Z,53.56
2019-03-06T21:13:51.216Z,53.58
2019-03-06T21:17:21.603Z,53.55
2019-03-06T21:20:51.757Z,53.54
2019-03-06T21:24:21.794Z,53.54
2019-03-06T21:27:52.174Z,53.56
2019-03-06T21:31:22.275Z,53.58
2019-03-06T21:34:52.410Z,53.59
2019-03-06T21:38:22.489Z,53.6
2019-03-06T21:41:52.516Z,53.61
2019-03-06T21:45:22.686Z,53.65
2019-03-06T21:48:52.883Z,53.63
2019-03-06T21:52:23.156Z,53.66
2019-03-06T21:55:53.354Z,53.67
2019-03-06T21:59:23.420Z,53.73
2019-03-06T22:00:17.306Z,53.72
2019-03-06T22:03:47.461Z,53.72
2019-03-06T22:07:17.529Z,53.75
2019-03-06T22:10:47.635Z,53.81
2019-03-06T22:14:17.651Z,53.84
2019-03-06T22:17:47.878Z,53.88
2019-03-06T22:21:17.952Z,53.92
2019-03-06T22:24:48.137Z,53.96
2019-03-06T22:28:18.162Z,54
2019-03-06T22:31:48.218Z,54.05
2019-03-06T22:35:18.349Z,54.09
2019-03-06T22:38:48.452Z,54.14
2019-03-06T22:42:18.530Z,54.18
2019-03-06T22:45:48.752Z,54.23
2019-03-06T22:49:18.948Z,54.3
2019-03-06T22:52:48.985Z,54.36
2019-03-06T22:56:19.083Z,54.41
2019-03-06T22:59:49.223Z,54.46
2019-03-06T23:03:20.229Z,54.52
2019-03-06T23:06:50.344Z,54.6
2019-03-06T23:10:20.449Z,54.67
2019-03-06T23:13:50.626Z,54.71
2019-03-06T23:17:20.710Z,54.76
2019-03-06T23:20:50.868Z,54.87
2019-03-06T23:24:21.021Z,54.91
2019-03-06T23:27:51.277Z,54.97
2019-03-06T23:31:21.381Z,55.03
2019-03-06T23:34:51.456Z,55.09
2019-03-06T23:38:21.572Z,55.15
2019-03-06T23:41:51.907Z,55.23
2019-03-06T23:45:21.973Z,55.29
2019-03-06T23:48:52.958Z,55.38
2019-03-06T23:52:27.654Z,55.44
2019-03-06T23:55:57.769Z,55.55
2019-03-06T23:59:27.819Z,55.61
